Time;durP1;ratioP1;P1;durP2;ratioP2;P2;SDS_P1;SDS_P2;PMS_P1;PMS_P2;Temp;Humidity;BMP_temperature;BMP_pressure;BME280_temperature;BME280_humidity;BME280_pressure;Samples;Min_cycle;Max_cycle;Signal;HPM_P1;HPM_P2
2023/03/30 00:01:18;;;;;;;24.67;7.93;;;;;;;;;;5052467;28;20147;-69
2023/03/30 00:03:46;;;;;;;14.70;7.18;;;;;;;;;;5052705;28;20040;-67
2023/03/30 00:06:14;;;;;;;11.15;6.45;;;;;;;;;;5048855;28;20506;-67
2023/03/30 00:08:39;;;;;;;12.60;7.35;;;;;;;;;;5048598;28;20083;-69
2023/03/30 00:11:09;;;;;;;16.17;6.30;;;;;;;;;;5049795;28;20028;-67
2023/03/30 00:13:36;;;;;;;11.77;7.15;;;;;;;;;;5050256;28;20360;-67
2023/03/30 00:16:04;;;;;;;15.07;6.80;;;;;;;;;;5052569;28;20036;-68
2023/03/30 00:18:29;;;;;;;12.15;7.18;;;;;;;;;;5008871;28;20034;-66
2023/03/30 00:20:57;;;;;;;15.07;7.55;;;;;;;;;;5029849;28;20036;-67
2023/03/30 00:23:23;;;;;;;13.23;6.65;;;;;;;;;;5032356;28;20055;-66
2023/03/30 00:25:48;;;;;;;16.10;7.13;;;;;;;;;;4998448;28;20552;-67
2023/03/30 00:28:14;;;;;;;14.80;7.32;;;;;;;;;;5032532;28;20037;-67
2023/03/30 00:30:40;;;;;;;14.32;7.03;;;;;;;;;;5031237;28;20411;-67
2023/03/30 00:33:06;;;;;;;22.10;7.63;;;;;;;;;;5028011;28;20202;-67
2023/03/30 00:35:32;;;;;;;12.75;7.05;;;;;;;;;;5016834;28;20021;-67
2023/03/30 00:38:02;;;;;;;16.20;7.35;;;;;;;;;;5030031;28;20034;-67
2023/03/30 00:40:30;;;;;;;9.77;6.60;;;;;;;;;;5024357;28;20033;-66
2023/03/30 00:43:09;;;;;;;13.18;6.40;;;;;;;;;;5027188;28;20025;-67
2023/03/30 00:45:36;;;;;;;13.75;6.88;;;;;;;;;;5012220;28;20488;-67
2023/03/30 00:48:07;;;;;;;14.63;7.15;;;;;;;;;;5026579;28;20017;-67
2023/03/30 00:50:42;;;;;;;13.65;6.82;;;;;;;;;;5030056;28;20033;-66
2023/03/30 00:53:17;;;;;;;11.75;7.00;;;;;;;;;;5026172;28;20072;-67
2023/03/30 00:55:45;;;;;;;11.07;6.45;;;;;;;;;;5011323;28;20030;-68
2023/03/30 00:58:11;;;;;;;14.70;6.80;;;;;;;;;;5026212;28;20048;-67
2023/03/30 01:00:38;;;;;;;10.27;5.82;;;;;;;;;;5030661;28;20049;-67
2023/03/30 01:03:15;;;;;;;12.88;6.13;;;;;;;;;;5030914;28;20055;-67
2023/03/30 01:05:43;;;;;;;13.52;6.75;;;;;;;;;;5032180;28;20100;-67
2023/03/30 01:08:12;;;;;;;14.18;6.00;;;;;;;;;;5030675;28;20048;-67
2023/03/30 01:10:40;;;;;;;21.08;7.05;;;;;;;;;;5031833;28;20033;-67
2023/03/30 01:13:06;;;;;;;10.07;6.40;;;;;;;;;;5027398;28;20021;-67
2023/03/30 01:15:36;;;;;;;14.40;7.13;;;;;;;;;;5012464;28;20034;-66
2023/03/30 01:18:18;;;;;;;16.02;6.53;;;;;;;;;;5024852;28;20064;-68
2023/03/30 01:21:22;;;;;;;14.18;6.13;;;;;;;;;;5026892;28;20038;-68
2023/03/30 01:23:48;;;;;;;;;;;;;;;;;;5022571;28;20509;-66
2023/03/30 01:26:40;;;;;;;13.23;6.95;;;;;;;;;;5031033;28;20359;-67
2023/03/30 01:29:33;;;;;;;14.73;7.72;;;;;;;;;;5035405;28;20037;-66
2023/03/30 01:32:01;;;;;;;17.50;8.40;;;;;;;;;;5000338;28;20124;-66
2023/03/30 01:34:30;;;;;;;22.58;8.23;;;;;;;;;;5028061;28;20488;-66
2023/03/30 01:37:26;;;;;;;18.45;7.65;;;;;;;;;;5030407;28;20116;-67
2023/03/30 01:40:08;;;;;;;14.88;7.20;;;;;;;;;;5030770;28;20132;-67
2023/03/30 01:43:18;;;;;;;12.80;6.32;;;;;;;;;;5030093;28;20121;-67
2023/03/30 01:46:00;;;;;;;13.90;6.35;;;;;;;;;;5020300;28;20033;-67
2023/03/30 01:48:45;;;;;;;13.77;5.97;;;;;;;;;;5031455;28;20045;-66
2023/03/30 01:51:20;;;;;;;9.75;5.57;;;;;;;;;;5030546;28;20030;-66
2023/03/30 01:53:58;;;;;;;11.93;5.22;;;;;;;;;;5030778;28;20487;-67
2023/03/30 01:56:32;;;;;;;11.43;5.82;;;;;;;;;;5030412;28;20021;-66
2023/03/30 01:59:08;;;;;;;11.00;5.05;;;;;;;;;;5030619;28;20120;-66
2023/03/30 02:01:36;;;;;;;12.45;5.50;;;;;;;;;;5030603;28;20044;-67
2023/03/30 02:04:04;;;;;;;15.25;5.93;;;;;;;;;;5032325;28;20028;-68
2023/03/30 02:06:39;;;;;;;11.48;5.65;;;;;;;;;;5031751;28;20033;-68
2023/03/30 02:09:09;;;;;;;11.88;5.68;;;;;;;;;;5027602;28;20121;-68
2023/03/30 02:11:38;;;;;;;13.02;5.40;;;;;;;;;;5032160;28;20091;-68
2023/03/30 02:14:08;;;;;;;14.95;5.72;;;;;;;;;;5030785;28;20049;-67
2023/03/30 02:16:41;;;;;;;13.55;5.32;;;;;;;;;;5031812;28;20037;-68
2023/03/30 02:19:08;;;;;;;10.55;5.28;;;;;;;;;;5031690;28;20045;-67
2023/03/30 02:21:34;;;;;;;10.70;4.72;;;;;;;;;;5030132;28;20060;-67
2023/03/30 02:24:05;;;;;;;13.05;6.05;;;;;;;;;;5030119;28;20128;-67
2023/03/30 02:26:31;;;;;;;13.52;5.38;;;;;;;;;;5031399;28;20391;-66
2023/03/30 02:28:57;;;;;;;12.13;5.25;;;;;;;;;;5031490;28;20032;-67
2023/03/30 02:31:23;;;;;;;9.95;3.85;;;;;;;;;;5036935;28;20509;-67
2023/03/30 02:34:07;;;;;;;8.25;3.90;;;;;;;;;;5027016;28;20026;-67
2023/03/30 02:36:44;;;;;;;7.88;3.92;;;;;;;;;;5022699;28;20040;-67
2023/03/30 02:39:22;;;;;;;6.25;3.72;;;;;;;;;;5030082;28;20044;-66
2023/03/30 02:42:09;;;;;;;7.78;4.20;;;;;;;;;;5026964;28;20057;-66
2023/03/30 02:44:42;;;;;;;8.93;4.03;;;;;;;;;;5023252;28;20072;-67
2023/03/30 02:47:15;;;;;;;8.55;4.03;;;;;;;;;;5031089;28;20034;-68
2023/03/30 02:49:59;;;;;;;8.45;4.30;;;;;;;;;;5033702;28;20120;-67
2023/03/30 02:52:37;;;;;;;9.13;4.45;;;;;;;;;;5033809;28;20034;-67
2023/03/30 02:55:06;;;;;;;10.52;4.63;;;;;;;;;;5029883;28;20030;-67
2023/03/30 02:58:04;;;;;;;8.68;4.22;;;;;;;;;;5025619;28;20065;-67
2023/03/30 03:00:53;;;;;;;7.35;4.47;;;;;;;;;;5028991;28;20526;-67
2023/03/30 03:03:50;;;;;;;9.88;4.22;;;;;;;;;;5033298;28;20045;-67
2023/03/30 03:06:19;;;;;;;9.20;4.10;;;;;;;;;;5031653;28;20110;-67
2023/03/30 03:08:49;;;;;;;10.20;4.18;;;;;;;;;;5033578;28;20025;-67
2023/03/30 03:11:25;;;;;;;7.25;4.03;;;;;;;;;;5033133;28;20040;-67
2023/03/30 03:13:51;;;;;;;8.43;3.50;;;;;;;;;;5033417;28;20029;-67
2023/03/30 03:16:17;;;;;;;8.88;4.00;;;;;;;;;;5034732;28;20037;-67
2023/03/30 03:19:09;;;;;;;8.13;3.90;;;;;;;;;;5030552;28;20124;-67
2023/03/30 03:21:35;;;;;;;13.52;5.60;;;;;;;;;;5032984;28;20037;-67
2023/03/30 03:24:03;;;;;;;13.60;5.28;;;;;;;;;;5029688;28;20080;-67
2023/03/30 03:26:49;;;;;;;10.90;4.97;;;;;;;;;;5028527;28;20049;-68
2023/03/30 03:29:15;;;;;;;14.15;4.53;;;;;;;;;;5014093;28;20041;-68
2023/03/30 03:31:40;;;;;;;11.55;3.80;;;;;;;;;;5034268;28;20029;-67
2023/03/30 03:34:06;;;;;;;9.32;4.53;;;;;;;;;;5016189;28;20041;-67
2023/03/30 03:36:53;;;;;;;6.90;3.97;;;;;;;;;;5039604;28;20604;-67
2023/03/30 03:39:22;;;;;;;7.68;4.00;;;;;;;;;;5032665;28;20040;-68
2023/03/30 03:41:50;;;;;;;10.15;4.20;;;;;;;;;;5032938;28;20424;-67
2023/03/30 03:44:16;;;;;;;8.13;3.85;;;;;;;;;;5032862;28;20033;-67
2023/03/30 03:46:41;;;;;;;14.13;4.70;;;;;;;;;;5032802;28;20032;-67
2023/03/30 03:49:08;;;;;;;8.05;4.57;;;;;;;;;;5032651;28;20440;-68
2023/03/30 03:51:34;;;;;;;7.93;4.78;;;;;;;;;;5032520;28;20030;-68
2023/03/30 03:54:01;;;;;;;13.02;3.92;;;;;;;;;;5032134;28;20029;-67
2023/03/30 03:56:27;;;;;;;11.65;4.90;;;;;;;;;;5030544;28;20033;-68
2023/03/30 03:58:54;;;;;;;12.48;4.70;;;;;;;;;;5030153;28;20041;-68
2023/03/30 04:01:20;;;;;;;10.27;4.20;;;;;;;;;;5031755;28;20025;-67
2023/03/30 04:03:45;;;;;;;7.68;4.15;;;;;;;;;;5033634;28;20052;-66
2023/03/30 04:06:11;;;;;;;8.93;3.15;;;;;;;;;;5029216;28;20472;-66
2023/03/30 04:08:37;;;;;;;9.48;3.58;;;;;;;;;;5012470;28;20466;-67
2023/03/30 04:11:38;;;;;;;11.15;3.83;;;;;;;;;;5013722;28;20455;-67
2023/03/30 04:14:24;;;;;;;5.80;2.40;;;;;;;;;;5027845;28;20048;-65
2023/03/30 04:17:08;;;;;;;8.30;3.55;;;;;;;;;;5031136;28;20518;-67
2023/03/30 04:19:57;;;;;;;5.68;2.78;;;;;;;;;;5031449;28;20076;-65
2023/03/30 04:22:52;;;;;;;7.45;3.00;;;;;;;;;;5031582;28;20136;-67
2023/03/30 04:25:20;;;;;;;10.18;3.65;;;;;;;;;;5032017;28;20048;-67
2023/03/30 04:28:04;;;;;;;11.88;3.70;;;;;;;;;;5033125;28;20051;-66
2023/03/30 04:31:09;;;;;;;16.55;5.10;;;;;;;;;;5036427;28;20046;-67
2023/03/30 04:34:01;;;;;;;11.40;4.30;;;;;;;;;;5020644;28;20038;-67
2023/03/30 04:37:06;;;;;;;7.60;4.00;;;;;;;;;;5029441;28;20396;-67
2023/03/30 04:39:32;;;;;;;15.18;4.75;;;;;;;;;;5029504;28;20445;-67
2023/03/30 04:41:57;;;;;;;20.77;5.20;;;;;;;;;;5027951;28;20082;-67
2023/03/30 04:44:34;;;;;;;18.58;5.93;;;;;;;;;;5029001;28;20499;-68
2023/03/30 04:47:25;;;;;;;20.60;5.82;;;;;;;;;;5038724;28;20479;-67
2023/03/30 04:50:01;;;;;;;11.90;4.88;;;;;;;;;;5032609;28;20121;-67
2023/03/30 04:53:05;;;;;;;16.33;5.13;;;;;;;;;;5029266;28;20496;-67
2023/03/30 04:55:50;;;;;;;15.70;4.88;;;;;;;;;;5028177;28;20362;-68
2023/03/30 04:58:45;;;;;;;8.65;3.80;;;;;;;;;;4970349;28;20042;-68
2023/03/30 05:01:32;;;;;;;19.65;3.90;;;;;;;;;;5031568;28;20029;-70
2023/03/30 05:03:58;;;;;;;5.30;2.65;;;;;;;;;;5031973;28;20041;-72
2023/03/30 05:06:48;;;;;;;8.95;3.75;;;;;;;;;;5030591;28;20431;-69
2023/03/30 05:09:32;;;;;;;7.35;3.20;;;;;;;;;;5031841;28;20411;-69
2023/03/30 05:12:21;;;;;;;10.20;3.60;;;;;;;;;;5030603;28;20434;-70
2023/03/30 05:15:09;;;;;;;13.93;3.75;;;;;;;;;;5030237;28;20044;-70
2023/03/30 05:17:57;;;;;;;8.75;4.20;;;;;;;;;;5031460;28;20045;-69
2023/03/30 05:21:02;;;;;;;9.48;3.97;;;;;;;;;;5028804;28;20471;-70
2023/03/30 05:23:44;;;;;;;8.45;3.55;;;;;;;;;;5012326;28;20136;-69
2023/03/30 05:26:16;;;;;;;8.38;3.35;;;;;;;;;;5030634;28;20352;-70
2023/03/30 05:28:56;;;;;;;10.07;3.63;;;;;;;;;;5030170;28;20052;-69
2023/03/30 05:31:38;;;;;;;13.60;4.20;;;;;;;;;;5030139;28;20120;-69
2023/03/30 05:34:24;;;;;;;8.38;4.07;;;;;;;;;;5029735;28;20029;-69
2023/03/30 05:37:02;;;;;;;12.73;4.93;;;;;;;;;;5029530;28;20148;-69
2023/03/30 05:39:35;;;;;;;10.02;4.40;;;;;;;;;;5031130;28;20381;-69
2023/03/30 05:42:29;;;;;;;6.68;3.47;;;;;;;;;;5027277;28;20045;-69
2023/03/30 05:45:16;;;;;;;14.25;4.97;;;;;;;;;;5009112;28;20042;-69
2023/03/30 05:48:00;;;;;;;13.13;4.78;;;;;;;;;;5030296;28;20422;-69
2023/03/30 05:50:41;;;;;;;13.65;5.88;;;;;;;;;;5015203;28;20033;-69
2023/03/30 05:53:16;;;;;;;11.35;6.30;;;;;;;;;;5029998;28;20048;-70
2023/03/30 05:55:56;;;;;;;18.33;6.93;;;;;;;;;;5030263;28;20038;-70
2023/03/30 05:58:37;;;;;;;14.32;6.32;;;;;;;;;;5015377;28;20037;-69
2023/03/30 06:01:13;;;;;;;22.00;7.78;;;;;;;;;;5029673;28;20175;-69
2023/03/30 06:03:41;;;;;;;22.67;6.53;;;;;;;;;;5029665;28;20042;-70
2023/03/30 06:06:09;;;;;;;16.02;6.55;;;;;;;;;;5029943;28;20021;-70
2023/03/30 06:08:35;;;;;;;15.85;5.93;;;;;;;;;;5029701;28;20037;-70
2023/03/30 06:11:03;;;;;;;13.63;5.20;;;;;;;;;;5029596;28;20080;-69
2023/03/30 06:13:41;;;;;;;20.60;6.20;;;;;;;;;;5029952;28;20370;-68
2023/03/30 06:16:07;;;;;;;11.27;4.50;;;;;;;;;;5013562;28;20044;-69
2023/03/30 06:18:33;;;;;;;13.18;5.13;;;;;;;;;;5030457;28;20549;-69
2023/03/30 06:21:05;;;;;;;10.80;4.50;;;;;;;;;;5033173;28;20045;-69
2023/03/30 06:23:36;;;;;;;9.27;4.00;;;;;;;;;;5033951;28;20033;-70
2023/03/30 06:26:08;;;;;;;17.08;4.18;;;;;;;;;;5043157;28;20052;-69
2023/03/30 06:28:36;;;;;;;9.65;4.00;;;;;;;;;;5053534;28;20068;-68
2023/03/30 06:31:10;;;;;;;14.45;6.20;;;;;;;;;;5053180;28;20059;-70
2023/03/30 06:33:37;;;;;;;15.43;3.78;;;;;;;;;;5052340;28;20123;-70
2023/03/30 06:36:12;;;;;;;19.15;7.35;;;;;;;;;;5029695;28;20017;-69
2023/03/30 06:38:40;;;;;;;12.63;6.65;;;;;;;;;;5033367;28;20163;-69
2023/03/30 06:41:08;;;;;;;13.43;6.43;;;;;;;;;;5032904;28;20049;-68
2023/03/30 06:43:38;;;;;;;14.07;6.07;;;;;;;;;;5033142;28;20034;-68
2023/03/30 06:46:14;;;;;;;11.82;6.32;;;;;;;;;;5033011;28;20033;-69
2023/03/30 06:48:44;;;;;;;14.85;5.32;;;;;;;;;;5033752;28;20030;-69
2023/03/30 06:51:28;;;;;;;11.63;5.20;;;;;;;;;;5033364;28;20048;-69
2023/03/30 06:53:58;;;;;;;14.43;6.47;;;;;;;;;;5033313;28;20062;-69
2023/03/30 06:56:25;;;;;;;16.02;6.95;;;;;;;;;;5016466;28;20033;-70
2023/03/30 06:59:14;;;;;;;18.52;5.78;;;;;;;;;;5032730;28;20029;-71
2023/03/30 07:01:59;;;;;;;12.38;5.90;;;;;;;;;;5034411;28;20188;-72
2023/03/30 07:05:05;;;;;;;11.75;5.72;;;;;;;;;;5023873;28;20124;-71
2023/03/30 07:07:55;;;;;;;12.82;6.75;;;;;;;;;;5038592;28;20037;-71
2023/03/30 07:10:22;;;;;;;10.68;5.30;;;;;;;;;;5033816;28;20031;-68
2023/03/30 07:12:49;;;;;;;13.60;5.70;;;;;;;;;;5032463;28;20044;-71
2023/03/30 07:15:15;;;;;;;15.35;6.18;;;;;;;;;;5033115;28;20064;-71
2023/03/30 07:17:41;;;;;;;13.23;6.57;;;;;;;;;;5033204;28;20575;-70
2023/03/30 07:20:09;;;;;;;19.65;7.55;;;;;;;;;;5029102;28;20037;-70
2023/03/30 07:22:50;;;;;;;16.40;6.32;;;;;;;;;;5025717;28;20215;-70
2023/03/30 07:25:16;;;;;;;16.80;6.80;;;;;;;;;;5031117;28;20480;-71
2023/03/30 07:27:43;;;;;;;12.85;6.25;;;;;;;;;;5059978;28;20128;-70
2023/03/30 07:30:09;;;;;;;14.98;6.60;;;;;;;;;;5022698;28;20173;-70
2023/03/30 07:32:36;;;;;;;12.63;6.15;;;;;;;;;;5048917;28;20032;-70
2023/03/30 07:35:03;;;;;;;11.30;6.43;;;;;;;;;;5025490;28;20037;-70
2023/03/30 07:37:29;;;;;;;20.58;10.90;;;;;;;;;;5029564;28;20037;-70
2023/03/30 07:39:55;;;;;;;9.75;5.00;;;;;;;;;;5028312;28;20068;-70
2023/03/30 07:42:22;;;;;;;7.13;3.85;;;;;;;;;;5034137;28;20060;-69
2023/03/30 07:44:49;;;;;;;7.00;2.75;;;;;;;;;;5031824;28;20436;-71
2023/03/30 07:47:16;;;;;;;5.93;2.88;;;;;;;;;;5035826;28;20549;-70
2023/03/30 07:49:43;;;;;;;3.63;2.00;;;;;;;;;;5015310;28;20175;-71
2023/03/30 07:52:08;;;;;;;4.97;2.00;;;;;;;;;;5027192;28;20337;-71
2023/03/30 07:54:45;;;;;;;9.45;2.50;;;;;;;;;;5031474;28;20025;-71
2023/03/30 07:57:21;;;;;;;9.50;2.55;;;;;;;;;;5031701;28;20438;-70
2023/03/30 07:59:47;;;;;;;4.57;2.53;;;;;;;;;;5031338;28;20048;-70
2023/03/30 08:02:33;;;;;;;4.43;1.45;;;;;;;;;;5024285;28;20037;-70
2023/03/30 08:04:59;;;;;;;7.93;2.10;;;;;;;;;;5031414;28;20394;-70
2023/03/30 08:07:46;;;;;;;3.20;1.60;;;;;;;;;;5026397;28;20033;-70
2023/03/30 08:10:18;;;;;;;1.98;1.20;;;;;;;;;;5030821;28;20104;-69
2023/03/30 08:12:44;;;;;;;5.13;1.95;;;;;;;;;;5031251;28;20037;-70
2023/03/30 08:15:10;;;;;;;4.22;1.60;;;;;;;;;;5030977;28;20017;-70
2023/03/30 08:17:36;;;;;;;5.13;1.95;;;;;;;;;;5032419;28;20415;-70
2023/03/30 08:20:02;;;;;;;4.85;1.73;;;;;;;;;;5030223;28;20025;-70
2023/03/30 08:22:27;;;;;;;4.90;1.70;;;;;;;;;;5031741;28;20033;-71
2023/03/30 08:24:53;;;;;;;4.00;1.85;;;;;;;;;;5031901;28;20124;-70
2023/03/30 08:27:19;;;;;;;5.10;1.42;;;;;;;;;;5031415;28;20120;-70
2023/03/30 08:29:45;;;;;;;2.88;1.50;;;;;;;;;;5031846;28;20109;-69
2023/03/30 08:32:11;;;;;;;5.55;1.60;;;;;;;;;;5031869;28;20065;-70
2023/03/30 08:34:36;;;;;;;3.45;1.45;;;;;;;;;;5031804;28;20021;-71
2023/03/30 08:37:02;;;;;;;3.38;2.10;;;;;;;;;;5029561;28;20022;-71
2023/03/30 08:39:30;;;;;;;5.28;1.98;;;;;;;;;;5030548;28;20210;-71
2023/03/30 08:42:07;;;;;;;7.68;1.73;;;;;;;;;;5031892;28;20087;-71
2023/03/30 08:44:36;;;;;;;2.40;1.13;;;;;;;;;;5030904;28;20037;-70
2023/03/30 08:47:07;;;;;;;3.17;1.30;;;;;;;;;;5010492;28;20025;-70
2023/03/30 08:49:41;;;;;;;3.33;1.42;;;;;;;;;;5031916;28;20037;-72
2023/03/30 08:52:18;;;;;;;2.88;1.55;;;;;;;;;;5047452;28;20060;-71
2023/03/30 08:54:47;;;;;;;4.78;1.20;;;;;;;;;;5032041;28;20025;-71
2023/03/30 08:57:29;;;;;;;5.57;1.55;;;;;;;;;;5031621;28;20383;-72
2023/03/30 09:00:19;;;;;;;4.80;1.95;;;;;;;;;;5031751;28;20088;-72
2023/03/30 09:02:49;;;;;;;5.00;1.83;;;;;;;;;;5031734;28;20511;-72
2023/03/30 09:05:28;;;;;;;5.75;1.95;;;;;;;;;;5031022;28;20483;-71
2023/03/30 09:08:03;;;;;;;5.53;1.65;;;;;;;;;;5030365;28;20036;-72
2023/03/30 09:10:33;;;;;;;4.90;1.65;;;;;;;;;;5031874;28;20076;-71
2023/03/30 09:13:02;;;;;;;4.45;2.00;;;;;;;;;;5032311;28;20566;-73
2023/03/30 09:15:37;;;;;;;6.55;2.05;;;;;;;;;;5031906;28;20025;-73
2023/03/30 09:18:12;;;;;;;4.07;1.50;;;;;;;;;;5030081;28;20026;-71
2023/03/30 09:20:39;;;;;;;2.88;1.30;;;;;;;;;;5031335;28;20116;-71
2023/03/30 09:23:12;;;;;;;7.22;1.92;;;;;;;;;;5032039;28;20027;-71
2023/03/30 09:25:44;;;;;;;;;;;;;;;;;;5024446;28;20041;-72
2023/03/30 09:28:16;;;;;;;6.82;1.90;;;;;;;;;;5031541;28;20011;-71
2023/03/30 09:30:47;;;;;;;7.07;2.60;;;;;;;;;;5030983;28;20079;-72
2023/03/30 09:33:34;;;;;;;3.53;2.10;;;;;;;;;;5031110;28;20052;-72
2023/03/30 09:36:12;;;;;;;2.97;1.70;;;;;;;;;;5031424;28;20475;-70
2023/03/30 09:38:40;;;;;;;7.00;2.40;;;;;;;;;;5031544;28;20040;-70
2023/03/30 09:41:16;;;;;;;4.47;1.70;;;;;;;;;;5030873;28;20117;-71
2023/03/30 09:43:45;;;;;;;7.18;2.03;;;;;;;;;;5030818;28;20021;-72
2023/03/30 09:46:13;;;;;;;5.13;1.67;;;;;;;;;;5030675;28;20079;-71
2023/03/30 09:48:40;;;;;;;2.67;1.30;;;;;;;;;;5031460;28;20029;-70
2023/03/30 09:51:18;;;;;;;6.75;1.38;;;;;;;;;;5031045;28;20076;-70
2023/03/30 09:53:46;;;;;;;4.15;1.48;;;;;;;;;;5029232;28;20033;-71
2023/03/30 09:56:35;;;;;;;7.97;1.60;;;;;;;;;;5030307;28;20075;-70
2023/03/30 09:59:26;;;;;;;6.60;2.20;;;;;;;;;;5031318;28;20025;-72
2023/03/30 10:01:52;;;;;;;9.10;2.88;;;;;;;;;;5031867;28;20037;-71
2023/03/30 10:04:18;;;;;;;3.88;2.00;;;;;;;;;;5031003;28;20026;-71
2023/03/30 10:06:47;;;;;;;5.28;1.60;;;;;;;;;;5031669;28;20090;-71
2023/03/30 10:09:13;;;;;;;5.53;1.73;;;;;;;;;;5031273;28;20021;-71
2023/03/30 10:11:45;;;;;;;5.47;1.50;;;;;;;;;;5030968;28;20040;-71
2023/03/30 10:14:25;;;;;;;3.13;1.75;;;;;;;;;;5031179;28;20107;-72
2023/03/30 10:16:51;;;;;;;3.17;1.50;;;;;;;;;;5031150;28;20073;-70
2023/03/30 10:19:21;;;;;;;9.65;1.90;;;;;;;;;;5029034;28;20017;-70
2023/03/30 10:21:53;;;;;;;6.53;1.88;;;;;;;;;;5030596;28;20065;-70
2023/03/30 10:24:23;;;;;;;5.28;1.40;;;;;;;;;;5030787;28;20407;-72
2023/03/30 10:26:56;;;;;;;4.03;1.42;;;;;;;;;;5030554;28;20045;-70
2023/03/30 10:29:24;;;;;;;;;;;;;;;;;;5030818;28;20368;-71
2023/03/30 10:32:09;;;;;;;5.32;1.45;;;;;;;;;;5030178;28;19956;-70
2023/03/30 10:34:39;;;;;;;4.78;1.45;;;;;;;;;;5021451;28;20123;-71
2023/03/30 10:37:33;;;;;;;3.78;1.67;;;;;;;;;;5031029;28;20120;-70
2023/03/30 10:40:04;;;;;;;3.45;1.20;;;;;;;;;;5029676;28;20077;-72
2023/03/30 10:42:32;;;;;;;5.07;2.13;;;;;;;;;;5030644;28;20045;-71
2023/03/30 10:45:03;;;;;;;5.15;1.60;;;;;;;;;;5031253;28;20395;-71
2023/03/30 10:47:56;;;;;;;4.63;1.77;;;;;;;;;;5029612;28;20041;-70
2023/03/30 10:51:00;;;;;;;7.90;2.20;;;;;;;;;;5029772;28;20496;-70
2023/03/30 10:53:34;;;;;;;3.97;1.65;;;;;;;;;;5030532;28;20059;-71
2023/03/30 10:56:05;;;;;;;6.43;1.70;;;;;;;;;;5031026;28;20053;-71
2023/03/30 10:58:43;;;;;;;2.65;1.50;;;;;;;;;;5030510;28;20095;-73
2023/03/30 11:01:33;;;;;;;8.05;2.35;;;;;;;;;;5031177;28;20140;-71
2023/03/30 11:04:09;;;;;;;4.25;1.30;;;;;;;;;;5029096;28;20040;-71
2023/03/30 11:06:40;;;;;;;7.20;1.75;;;;;;;;;;5031553;28;20163;-72
2023/03/30 11:09:13;;;;;;;4.93;2.10;;;;;;;;;;5034278;28;20040;-72
2023/03/30 11:11:43;;;;;;;;;;;;;;;;;;5059024;28;20431;-71
2023/03/30 11:14:26;;;;;;;3.30;1.55;;;;;;;;;;5034190;28;19931;-71
2023/03/30 11:16:58;;;;;;;;;;;;;;;;;;5033998;28;20408;-71
2023/03/30 11:19:47;;;;;;;3.83;1.40;;;;;;;;;;5032525;28;19920;-71
2023/03/30 11:22:37;;;;;;;4.57;1.30;;;;;;;;;;5037858;28;20041;-72
2023/03/30 11:25:16;;;;;;;3.65;1.70;;;;;;;;;;5031188;28;20133;-71
2023/03/30 11:27:53;;;;;;;2.97;1.70;;;;;;;;;;5033517;28;20549;-71
2023/03/30 11:30:26;;;;;;;4.72;1.75;;;;;;;;;;5033597;28;20091;-71
2023/03/30 11:33:23;;;;;;;3.97;1.70;;;;;;;;;;5029327;28;20036;-71
2023/03/30 11:36:04;;;;;;;3.25;1.85;;;;;;;;;;5028660;28;20048;-71
2023/03/30 11:38:42;;;;;;;7.25;2.08;;;;;;;;;;5032691;28;20503;-70
2023/03/30 11:41:16;;;;;;;5.70;2.30;;;;;;;;;;5033473;28;20037;-70
2023/03/30 11:43:42;;;;;;;4.13;1.30;;;;;;;;;;5033488;28;20030;-71
2023/03/30 11:46:21;;;;;;;13.90;2.50;;;;;;;;;;5031880;28;20116;-71
2023/03/30 11:49:09;;;;;;;4.10;1.88;;;;;;;;;;5031657;28;20055;-71
2023/03/30 11:52:04;;;;;;;5.32;1.80;;;;;;;;;;5032583;28;20087;-71
2023/03/30 11:54:57;;;;;;;3.75;1.48;;;;;;;;;;5028198;28;20034;-71
2023/03/30 11:58:09;;;;;;;1.95;1.27;;;;;;;;;;5029103;28;20025;-71
2023/03/30 12:00:53;;;;;;;8.95;1.67;;;;;;;;;;5023668;28;20068;-72
2023/03/30 12:03:25;;;;;;;2.05;1.10;;;;;;;;;;5032274;28;20117;-72
2023/03/30 12:06:14;;;;;;;2.97;1.40;;;;;;;;;;5028262;28;20155;-74
2023/03/30 12:09:00;;;;;;;3.42;1.90;;;;;;;;;;5020483;28;20049;-70
2023/03/30 12:11:47;;;;;;;4.15;1.48;;;;;;;;;;5024769;28;20555;-70
2023/03/30 12:14:33;;;;;;;4.03;1.65;;;;;;;;;;5032958;28;20163;-73
2023/03/30 12:17:37;;;;;;;5.03;1.30;;;;;;;;;;4991791;28;20038;-69
2023/03/30 12:20:13;;;;;;;2.20;1.17;;;;;;;;;;5033117;28;20033;-71
2023/03/30 12:22:54;;;;;;;4.50;1.45;;;;;;;;;;5025672;28;20029;-70
2023/03/30 12:25:38;;;;;;;5.32;1.30;;;;;;;;;;5032451;28;20064;-70
2023/03/30 12:28:14;;;;;;;3.75;1.30;;;;;;;;;;5031734;28;20033;-70
2023/03/30 12:30:58;;;;;;;2.47;1.27;;;;;;;;;;5033115;28;20099;-70
2023/03/30 12:33:34;;;;;;;6.22;1.30;;;;;;;;;;5032911;28;20076;-70
2023/03/30 12:36:03;;;;;;;2.88;1.45;;;;;;;;;;5032944;28;20029;-69
2023/03/30 12:38:48;;;;;;;1.40;0.95;;;;;;;;;;5030731;28;20164;-71
2023/03/30 12:41:19;;;;;;;2.17;1.17;;;;;;;;;;5031851;28;20124;-70
2023/03/30 12:44:22;;;;;;;2.28;1.02;;;;;;;;;;5032634;28;20041;-71
2023/03/30 12:47:19;;;;;;;2.97;1.40;;;;;;;;;;5032282;28;20037;-71
2023/03/30 12:49:51;;;;;;;1.42;0.90;;;;;;;;;;5030185;28;20757;-69
2023/03/30 12:52:51;;;;;;;2.97;1.30;;;;;;;;;;5032678;28;20062;-70
2023/03/30 12:55:31;;;;;;;3.90;1.40;;;;;;;;;;5027838;28;20044;-70
2023/03/30 12:58:15;;;;;;;3.72;1.67;;;;;;;;;;5028843;28;20176;-69
2023/03/30 13:00:43;;;;;;;2.78;1.20;;;;;;;;;;5029142;28;20499;-71
2023/03/30 13:03:52;;;;;;;3.33;1.65;;;;;;;;;;5032830;28;20049;-70
2023/03/30 13:06:30;;;;;;;2.90;1.10;;;;;;;;;;5029239;28;20076;-70
2023/03/30 13:09:08;;;;;;;2.08;1.17;;;;;;;;;;5034133;28;20183;-71
2023/03/30 13:11:52;;;;;;;3.75;1.30;;;;;;;;;;5032013;28;20033;-70
2023/03/30 13:14:38;;;;;;;3.08;1.23;;;;;;;;;;5032150;28;20065;-73
2023/03/30 13:17:05;;;;;;;3.83;1.30;;;;;;;;;;5032034;28;20044;-71
2023/03/30 13:19:33;;;;;;;4.18;1.30;;;;;;;;;;5033558;28;20021;-69
2023/03/30 13:22:11;;;;;;;2.88;1.27;;;;;;;;;;5032001;28;20037;-71
2023/03/30 13:24:58;;;;;;;4.10;1.58;;;;;;;;;;5032203;28;20217;-69
2023/03/30 13:27:33;;;;;;;4.53;1.30;;;;;;;;;;5031745;28;20025;-69
2023/03/30 13:29:59;;;;;;;2.58;1.30;;;;;;;;;;5030249;28;20027;-70
2023/03/30 13:32:46;;;;;;;1.88;1.10;;;;;;;;;;5031608;28;20412;-70
2023/03/30 13:35:33;;;;;;;3.15;1.20;;;;;;;;;;5031151;28;20132;-70
2023/03/30 13:38:17;;;;;;;3.70;1.35;;;;;;;;;;5031384;28;20072;-71
2023/03/30 13:40:52;;;;;;;1.92;1.15;;;;;;;;;;5031133;28;20038;-69
2023/03/30 13:43:27;;;;;;;1.95;1.00;;;;;;;;;;5031221;28;20095;-70
2023/03/30 13:46:08;;;;;;;1.95;1.20;;;;;;;;;;5030142;28;20498;-70
2023/03/30 13:49:17;;;;;;;2.33;1.35;;;;;;;;;;5031259;28;20045;-69
2023/03/30 13:51:45;;;;;;;4.38;1.20;;;;;;;;;;5031299;28;20037;-70
2023/03/30 13:54:21;;;;;;;5.95;1.40;;;;;;;;;;5027021;28;20048;-70
2023/03/30 13:56:56;;;;;;;3.80;1.30;;;;;;;;;;5030930;28;20075;-70
2023/03/30 13:59:28;;;;;;;2.78;1.25;;;;;;;;;;5030800;28;20491;-70
2023/03/30 14:01:56;;;;;;;3.13;1.30;;;;;;;;;;5031147;28;20333;-69
2023/03/30 14:04:21;;;;;;;4.22;1.65;;;;;;;;;;5030855;28;20053;-70
2023/03/30 14:06:50;;;;;;;2.92;1.30;;;;;;;;;;5030918;28;20080;-69
2023/03/30 14:09:34;;;;;;;2.85;1.00;;;;;;;;;;5031285;28;20032;-71
2023/03/30 14:12:03;;;;;;;1.83;1.10;;;;;;;;;;5035430;28;20049;-70
2023/03/30 14:14:28;;;;;;;2.75;1.40;;;;;;;;;;5029881;28;20017;-70
2023/03/30 14:16:59;;;;;;;1.30;0.90;;;;;;;;;;5031011;28;20065;-69
2023/03/30 14:19:33;;;;;;;4.70;1.40;;;;;;;;;;5030705;28;20037;-70
2023/03/30 14:22:02;;;;;;;4.63;1.15;;;;;;;;;;5030979;28;20048;-70
2023/03/30 14:24:33;;;;;;;3.85;1.40;;;;;;;;;;5030701;28;20063;-70
2023/03/30 14:27:05;;;;;;;4.78;1.65;;;;;;;;;;5030889;28;20118;-70
2023/03/30 14:29:31;;;;;;;3.80;1.47;;;;;;;;;;5030963;28;20048;-69
2023/03/30 14:32:02;;;;;;;3.08;1.00;;;;;;;;;;5031187;28;20037;-69
2023/03/30 14:34:30;;;;;;;1.80;0.88;;;;;;;;;;5030684;28;20037;-70
2023/03/30 14:37:02;;;;;;;2.42;1.40;;;;;;;;;;5030449;28;20056;-69
2023/03/30 14:39:31;;;;;;;6.72;1.38;;;;;;;;;;5030930;28;20148;-70
2023/03/30 14:42:13;;;;;;;9.15;1.60;;;;;;;;;;5033886;28;20072;-70
2023/03/30 14:44:40;;;;;;;3.42;1.42;;;;;;;;;;5034605;28;20076;-70
2023/03/30 14:47:06;;;;;;;3.47;1.10;;;;;;;;;;5034937;28;20030;-71
2023/03/30 14:49:34;;;;;;;3.63;1.20;;;;;;;;;;5034356;28;20521;-69
2023/03/30 14:52:08;;;;;;;4.28;1.33;;;;;;;;;;5034695;28;20159;-71
2023/03/30 14:54:35;;;;;;;2.42;1.20;;;;;;;;;;5034798;28;20052;-69
2023/03/30 14:57:04;;;;;;;2.97;1.92;;;;;;;;;;5033506;28;20033;-69
2023/03/30 14:59:34;;;;;;;5.47;1.60;;;;;;;;;;5029890;28;20065;-70
2023/03/30 15:02:01;;;;;;;2.60;1.23;;;;;;;;;;5029325;28;20384;-70
2023/03/30 15:04:32;;;;;;;2.72;1.20;;;;;;;;;;5033174;28;20107;-70
2023/03/30 15:06:59;;;;;;;3.45;1.20;;;;;;;;;;5034192;28;20044;-69
2023/03/30 15:09:25;;;;;;;5.35;1.45;;;;;;;;;;5030759;28;20048;-69
2023/03/30 15:11:58;;;;;;;4.35;2.80;;;;;;;;;;5029646;28;20033;-69
2023/03/30 15:14:27;;;;;;;2.90;1.00;;;;;;;;;;5031818;28;20025;-69
2023/03/30 15:16:55;;;;;;;1.38;0.93;;;;;;;;;;5033430;28;20025;-69
2023/03/30 15:19:30;;;;;;;3.15;1.35;;;;;;;;;;5033409;28;20033;-70
2023/03/30 15:22:01;;;;;;;3.42;1.30;;;;;;;;;;5033692;28;20037;-71
2023/03/30 15:24:32;;;;;;;6.72;1.35;;;;;;;;;;5032453;28;20107;-71
2023/03/30 15:27:02;;;;;;;4.38;1.60;;;;;;;;;;5033497;28;20079;-70
2023/03/30 15:29:28;;;;;;;3.70;1.30;;;;;;;;;;5033886;28;20087;-70